Terminal Aerodrome Forecast
Issued by NWS Cleveland, OH

Home | Current Version | Previous Version | Text Only | Print | Product List | Glossary Off
Versions: 1 2 3 4 5 6 7 8 9 10 11 12 13 14 15 16 17 18 19 20 21 22

000
FTUS41 KCLE 212100 AAA
TAFYNG
TAF AMD
KYNG 212143Z 2122/2218 31008KT 4SM -DZ BR OVC006
      TEMPO 2122/2202 2SM -DZ BR
     FM220300 35010KT P6SM OVC015
      TEMPO 2203/2207 -RA OVC008
     FM221200 36010KT P6SM OVC025=

USA.gov is the U.S. government's official web portal to all federal, state and local government web resources and services.